Time;durP1;ratioP1;P1;durP2;ratioP2;P2;SDS_P1;SDS_P2;PMS_P1;PMS_P2;Temp;Humidity;BMP_temperature;BMP_pressure;BME280_temperature;BME280_humidity;BME280_pressure;Samples;Min_cycle;Max_cycle;Signal;HPM_P1;HPM_P2
2022/01/04 00:00:12;;;;;;;21.92;9.82;;;8.90;99.90;;;;;;4973169;28;20035;-69
2022/01/04 00:02:38;;;;;;;26.80;11.95;;;8.90;99.90;;;;;;4971991;28;20053;-68
2022/01/04 00:05:04;;;;;;;27.17;10.93;;;8.90;99.90;;;;;;4971978;28;20415;-68
2022/01/04 00:07:31;;;;;;;22.80;11.25;;;8.90;99.90;;;;;;4973415;28;20054;-68
2022/01/04 00:09:56;;;;;;;27.13;10.73;;;8.80;99.90;;;;;;4973207;28;20380;-68
2022/01/04 00:15:07;;;;;;;32.22;11.02;;;8.90;99.90;;;;;;4973346;28;20131;-69
2022/01/04 00:17:33;;;;;;;23.15;10.80;;;8.90;99.90;;;;;;4971954;28;20487;-69
2022/01/04 00:19:59;;;;;;;29.75;11.73;;;8.90;99.90;;;;;;4955819;28;20043;-70
2022/01/04 00:22:24;;;;;;;28.77;12.65;;;8.80;99.90;;;;;;4971551;28;20038;-70
2022/01/04 00:24:50;;;;;;;29.02;11.15;;;8.90;99.90;;;;;;4972757;28;20043;-70
2022/01/04 00:27:16;;;;;;;24.65;11.43;;;8.80;99.90;;;;;;4972911;28;20842;-69
2022/01/04 00:29:41;;;;;;;27.73;11.18;;;8.90;99.90;;;;;;4973122;28;20403;-69
2022/01/04 00:32:08;;;;;;;24.90;10.85;;;8.80;99.90;;;;;;4972720;28;20121;-69
2022/01/04 00:34:33;;;;;;;24.25;11.38;;;8.80;99.90;;;;;;4971375;28;20051;-69
2022/01/04 00:36:59;;;;;;;20.85;11.02;;;8.80;99.90;;;;;;4972676;28;20466;-68
2022/01/04 00:39:25;;;;;;;30.88;12.00;;;8.80;99.90;;;;;;4972771;28;20070;-68
2022/01/04 00:41:50;;;;;;;25.27;11.30;;;8.80;99.90;;;;;;4972808;28;20785;-69
2022/01/04 00:44:16;;;;;;;28.15;12.90;;;8.80;99.90;;;;;;4971157;28;20555;-69
2022/01/04 00:46:41;;;;;;;29.27;11.70;;;8.70;99.90;;;;;;4971243;28;20043;-68
2022/01/04 00:49:10;;;;;;;23.75;11.85;;;8.60;99.90;;;;;;4970401;28;20047;-68
2022/01/04 00:51:55;;;;;;;28.48;12.05;;;8.60;99.90;;;;;;4972394;28;20722;-68
2022/01/04 00:54:21;;;;;;;30.73;12.10;;;8.60;99.90;;;;;;4970893;28;20038;-68
2022/01/04 00:56:48;;;;;;;25.05;11.70;;;8.60;99.90;;;;;;4970999;28;20058;-68
2022/01/04 00:59:14;;;;;;;23.55;11.27;;;8.50;99.90;;;;;;4972560;28;20138;-68
2022/01/04 01:01:40;;;;;;;31.30;12.32;;;8.50;99.90;;;;;;4971066;28;20089;-69
2022/01/04 01:04:07;;;;;;;27.63;11.77;;;8.50;99.90;;;;;;4970814;28;20042;-70
2022/01/04 01:06:33;;;;;;;29.95;12.32;;;8.40;99.90;;;;;;4970643;28;20039;-69
2022/01/04 01:08:59;;;;;;;27.88;11.80;;;8.40;99.90;;;;;;4971005;28;20050;-68
2022/01/04 01:11:24;;;;;;;27.65;11.52;;;8.40;99.90;;;;;;4970981;28;20134;-68
2022/01/04 01:13:50;;;;;;;32.60;11.30;;;8.40;99.90;;;;;;4971808;28;20419;-68
2022/01/04 01:16:16;;;;;;;24.83;11.90;;;8.40;99.90;;;;;;4972047;28;20179;-69
2022/01/04 01:18:42;;;;;;;24.88;11.85;;;8.40;99.90;;;;;;4970854;28;20506;-68
2022/01/04 01:21:08;;;;;;;26.20;11.82;;;8.30;99.90;;;;;;4970757;28;20047;-68
2022/01/04 01:23:36;;;;;;;33.53;12.13;;;8.30;99.90;;;;;;4971750;28;20042;-68
2022/01/04 01:26:03;;;;;;;26.80;12.25;;;8.40;99.90;;;;;;4971801;28;20070;-69
2022/01/04 01:28:28;;;;;;;23.17;12.13;;;8.50;99.90;;;;;;4970642;28;20674;-69
2022/01/04 01:30:54;;;;;;;33.58;12.98;;;8.50;99.90;;;;;;4970679;28;20118;-68
2022/01/04 01:33:20;;;;;;;28.35;11.30;;;8.50;99.90;;;;;;4971599;28;20050;-70
2022/01/04 01:35:46;;;;;;;26.10;12.25;;;8.50;99.90;;;;;;4970323;28;20131;-69
2022/01/04 01:38:14;;;;;;;31.63;12.13;;;8.50;99.90;;;;;;4970459;28;20113;-68
2022/01/04 01:40:40;;;;;;;31.48;12.93;;;8.50;99.90;;;;;;4970531;28;20045;-68
2022/01/04 01:43:07;;;;;;;34.90;13.13;;;8.40;99.90;;;;;;4970128;28;20051;-68
2022/01/04 01:45:33;;;;;;;29.10;13.70;;;8.40;99.90;;;;;;4971259;28;20121;-69
2022/01/04 01:47:59;;;;;;;29.20;14.00;;;8.40;99.90;;;;;;4971416;28;20057;-69
2022/01/04 01:50:25;;;;;;;34.78;13.93;;;8.40;99.90;;;;;;4971377;28;20043;-68
2022/01/04 01:52:52;;;;;;;30.33;12.75;;;8.30;99.90;;;;;;4969955;28;20046;-68
2022/01/04 01:55:20;;;;;;;32.70;13.90;;;8.30;99.90;;;;;;4971481;28;20050;-69
2022/01/04 01:57:46;;;;;;;29.35;13.23;;;8.30;99.90;;;;;;4969946;28;20057;-69
2022/01/04 02:00:15;;;;;;;29.10;13.25;;;8.20;99.90;;;;;;4969801;28;20049;-69
2022/01/04 02:02:40;;;;;;;27.88;12.20;;;8.30;99.90;;;;;;4971072;28;20039;-70
2022/01/04 02:05:07;;;;;;;30.70;12.75;;;8.20;99.90;;;;;;4970994;28;20058;-68
2022/01/04 02:07:33;;;;;;;31.63;13.85;;;8.20;99.90;;;;;;4970003;28;20038;-68
2022/01/04 02:10:05;;;;;;;26.95;13.73;;;8.10;99.90;;;;;;4971091;28;20122;-69
2022/01/04 02:12:49;;;;;;;30.38;13.90;;;8.10;99.90;;;;;;4969748;28;20179;-68
2022/01/04 02:15:23;;;;;;;36.28;13.90;;;8.10;99.90;;;;;;4969700;28;20578;-68
2022/01/04 02:17:50;;;;;;;30.52;14.13;;;8.00;99.90;;;;;;4970993;28;20043;-68
2022/01/04 02:20:17;;;;;;;27.17;13.27;;;8.00;99.90;;;;;;4969924;28;20039;-69
2022/01/04 02:22:43;;;;;;;33.50;14.18;;;8.00;99.90;;;;;;4970725;28;20043;-68
2022/01/04 02:25:09;;;;;;;31.67;13.65;;;8.00;99.90;;;;;;4970661;28;20037;-68
2022/01/04 02:27:37;;;;;;;37.92;13.68;;;8.00;99.90;;;;;;4970691;28;20093;-69
2022/01/04 02:30:06;;;;;;;35.30;14.88;;;7.90;99.90;;;;;;4969203;28;20054;-68
2022/01/04 02:32:31;;;;;;;32.85;13.73;;;7.90;99.90;;;;;;4969569;28;20074;-68
2022/01/04 02:34:57;;;;;;;33.03;14.50;;;7.90;99.90;;;;;;4970676;28;20525;-70
2022/01/04 02:37:25;;;;;;;32.83;15.30;;;7.90;99.90;;;;;;4969160;28;20047;-69
2022/01/04 02:39:52;;;;;;;38.85;14.85;;;7.80;99.90;;;;;;4970639;28;20113;-69
2022/01/04 02:42:17;;;;;;;30.77;15.35;;;7.90;99.90;;;;;;4969328;28;20082;-68
2022/01/04 02:44:44;;;;;;;35.38;15.20;;;7.80;99.90;;;;;;4970218;28;20132;-68
2022/01/04 02:47:10;;;;;;;36.13;15.40;;;7.80;99.90;;;;;;4969052;28;20054;-68
2022/01/04 02:49:36;;;;;;;43.15;15.93;;;7.70;99.90;;;;;;4969065;28;20418;-68
2022/01/04 02:52:02;;;;;;;36.40;15.75;;;7.70;99.90;;;;;;4970519;28;20039;-69
2022/01/04 02:54:28;;;;;;;38.63;16.13;;;7.70;99.90;;;;;;4969025;28;20494;-69
2022/01/04 02:56:53;;;;;;;44.78;17.17;;;7.70;99.90;;;;;;4969162;28;20047;-69
2022/01/04 02:59:19;;;;;;;39.58;17.20;;;7.70;99.90;;;;;;4970492;28;20137;-69
2022/01/04 03:01:44;;;;;;;41.50;17.30;;;7.80;99.90;;;;;;4969099;28;20097;-69
2022/01/04 03:04:10;;;;;;;47.67;17.05;;;7.80;99.90;;;;;;4969154;28;20134;-70
2022/01/04 03:06:37;;;;;;;37.50;15.60;;;7.90;99.90;;;;;;4968942;28;20682;-69
2022/01/04 03:09:04;;;;;;;38.35;16.20;;;7.90;99.90;;;;;;4970255;28;20046;-69
2022/01/04 03:11:30;;;;;;;44.08;18.20;;;7.90;99.90;;;;;;4968250;28;20097;-69
2022/01/04 03:13:55;;;;;;;42.47;17.23;;;8.00;99.90;;;;;;4970106;28;20051;-69
2022/01/04 03:16:21;;;;;;;44.20;17.08;;;8.00;99.90;;;;;;4969080;28;20101;-69
2022/01/04 03:19:07;;;;;;;45.63;16.83;;;8.10;99.90;;;;;;4970216;28;20090;-69
2022/01/04 03:21:34;;;;;;;44.83;16.75;;;8.10;99.90;;;;;;4968486;28;20082;-69
2022/01/04 03:23:59;;;;;;;37.50;15.50;;;8.10;99.90;;;;;;4969986;28;20042;-69
2022/01/04 03:26:25;;;;;;;42.30;16.58;;;8.10;99.90;;;;;;4969965;28;20042;-69
2022/01/04 03:28:51;;;;;;;37.58;16.67;;;8.20;99.90;;;;;;4970046;28;20436;-70
2022/01/04 03:31:17;;;;;;;44.00;17.08;;;8.20;99.90;;;;;;4969080;28;20066;-68
2022/01/04 03:33:42;;;;;;;37.03;18.30;;;8.20;99.90;;;;;;4969890;28;20078;-68
2022/01/04 03:36:08;;;;;;;38.38;16.92;;;8.30;99.90;;;;;;4968938;28;20058;-68
2022/01/04 03:38:34;;;;;;;41.53;17.73;;;8.30;99.90;;;;;;5039419;23;20425;-66
2022/01/04 03:40:59;;;;;;;44.20;19.30;;;8.30;99.90;;;;;;5009343;28;20037;-66
2022/01/04 03:49:46;;;;;;;40.53;18.17;;;8.30;99.90;;;;;;5229186;23;20061;-65
2022/01/04 03:52:11;;;;;;;43.72;18.13;;;8.20;99.90;;;;;;5011411;28;20042;-65
2022/01/04 03:54:37;;;;;;;42.40;18.70;;;8.20;99.90;;;;;;4994088;28;20058;-65
2022/01/04 03:57:03;;;;;;;41.88;17.70;;;8.30;99.90;;;;;;5009853;28;20304;-65
2022/01/04 03:59:28;;;;;;;43.67;18.02;;;8.30;99.90;;;;;;4992037;28;20080;-65
2022/01/04 04:01:54;;;;;;;48.50;17.85;;;8.30;99.90;;;;;;4974778;28;20092;-65
2022/01/04 04:04:20;;;;;;;43.17;18.67;;;8.30;99.90;;;;;;4991932;28;20042;-65
2022/01/04 04:06:46;;;;;;;42.67;18.65;;;8.30;99.90;;;;;;4992091;28;20038;-65
2022/01/04 04:09:12;;;;;;;49.53;19.13;;;8.30;99.90;;;;;;4974263;28;20113;-65
2022/01/04 04:11:38;;;;;;;42.05;18.77;;;8.20;99.90;;;;;;4991039;28;20487;-65
2022/01/04 04:14:03;;;;;;;41.15;17.98;;;8.30;99.90;;;;;;4955234;28;20042;-65
2022/01/04 04:16:29;;;;;;;45.03;18.98;;;8.30;99.90;;;;;;4954863;28;20519;-65
2022/01/04 04:18:54;;;;;;;42.22;19.50;;;8.20;99.90;;;;;;4983871;28;20043;-65
2022/01/04 04:21:20;;;;;;;42.83;18.48;;;8.20;99.90;;;;;;4991368;28;20050;-65
2022/01/04 04:23:46;;;;;;;40.47;18.50;;;8.20;99.90;;;;;;4992101;28;20074;-65
2022/01/04 04:26:11;;;;;;;51.08;19.38;;;8.20;99.90;;;;;;4977685;28;20117;-65
2022/01/04 04:28:37;;;;;;;45.92;18.63;;;8.20;99.90;;;;;;4977294;28;20123;-66
2022/01/04 04:31:03;;;;;;;40.45;18.15;;;8.30;99.90;;;;;;4994967;28;20386;-65
2022/01/04 04:33:29;;;;;;;49.30;19.13;;;8.30;99.90;;;;;;4977640;28;20050;-65
2022/01/04 04:35:55;;;;;;;42.40;18.90;;;8.30;99.90;;;;;;5005225;28;20048;-65
2022/01/04 04:38:21;;;;;;;50.60;20.30;;;8.30;99.90;;;;;;4994856;28;20116;-65
2022/01/04 04:41:35;;;;;;;39.22;18.20;;;8.30;99.90;;;;;;5012482;28;20037;-66
2022/01/04 04:48:10;;;;;;;39.78;17.92;;;8.40;99.90;;;;;;5146796;23;20545;-67
2022/01/04 04:50:36;;;;;;;41.63;17.88;;;8.40;99.90;;;;;;4974527;28;20046;-66
2022/01/04 04:53:02;;;;;;;33.35;16.77;;;8.40;99.90;;;;;;4991736;28;20043;-66
2022/01/04 04:55:27;;;;;;;46.45;19.27;;;8.40;99.90;;;;;;4974363;28;20078;-66
2022/01/04 05:10:50;;;;;;;36.97;17.25;;;8.40;99.90;;;;;;5797697;23;20297;-66
2022/01/04 05:13:15;;;;;;;33.85;15.50;;;8.40;99.90;;;;;;4994151;28;20393;-66
2022/01/04 05:15:41;;;;;;;34.53;16.20;;;8.40;99.90;;;;;;4993623;28;20447;-65
2022/01/04 05:24:23;;;;;;;37.60;16.73;;;8.50;99.90;;;;;;5893309;23;20024;-66
2022/01/04 05:26:48;;;;;;;45.63;18.92;;;8.50;99.90;;;;;;5010903;28;20102;-66
2022/01/04 05:29:14;;;;;;;43.35;20.10;;;8.50;99.90;;;;;;5010610;28;20038;-66
2022/01/04 05:31:39;;;;;;;49.28;19.92;;;8.50;99.90;;;;;;5009771;28;20069;-67
2022/01/04 05:34:05;;;;;;;55.17;20.67;;;8.40;99.90;;;;;;5306036;23;20045;-66
2022/01/04 05:36:31;;;;;;;43.15;18.88;;;8.40;99.90;;;;;;4993251;28;20096;-66
2022/01/04 05:38:56;;;;;;;45.95;19.05;;;8.40;99.90;;;;;;5007775;28;20041;-66
2022/01/04 05:41:22;;;;;;;37.95;17.23;;;8.40;99.90;;;;;;5010861;28;20238;-67
2022/01/04 05:43:47;;;;;;;38.85;17.63;;;8.40;99.90;;;;;;4992667;28;20088;-66
2022/01/04 05:52:00;;;;;;;39.58;17.88;;;8.40;99.90;;;;;;4970507;28;20051;-65
2022/01/04 05:54:25;;;;;;;40.65;18.10;;;8.40;99.90;;;;;;4970202;28;20046;-66
2022/01/04 05:59:30;;;;;;;37.95;17.67;;;8.40;99.90;;;;;;5406856;23;20058;-65
2022/01/04 06:09:26;;;;;;;33.25;16.58;;;8.40;99.90;;;;;;5091286;23;20056;-66
2022/01/04 06:20:57;;;;;;;41.25;16.80;;;8.40;99.90;;;;;;5243973;23;20064;-65
2022/01/04 06:23:23;;;;;;;38.67;18.60;;;8.40;99.90;;;;;;4993497;28;20038;-65
2022/01/04 06:28:25;;;;;;;39.38;18.00;;;8.40;99.90;;;;;;5836833;23;20013;-65
2022/01/04 06:30:51;;;;;;;37.17;16.58;;;8.40;99.90;;;;;;4973420;28;20060;-65
2022/01/04 06:49:55;;;;;;;43.13;18.33;;;8.30;99.90;;;;;;5080872;23;20317;-65
2022/01/04 06:52:20;;;;;;;37.38;18.38;;;8.30;99.90;;;;;;5007170;28;20301;-66
2022/01/04 06:54:46;;;;;;;45.92;19.17;;;8.30;99.90;;;;;;4989358;28;20375;-66
2022/01/04 06:57:12;;;;;;;45.00;20.27;;;8.40;99.90;;;;;;5006885;28;20089;-66
2022/01/04 06:59:37;;;;;;;43.58;19.83;;;8.40;99.90;;;;;;5006795;28;20117;-66
2022/01/04 07:20:11;;;;;;;43.45;21.25;;;8.40;99.90;;;;;;5271032;23;20491;-66
2022/01/04 07:22:37;;;;;;;46.42;23.30;;;8.40;99.90;;;;;;4991860;28;20413;-66
2022/01/04 07:25:06;;;;;;;39.38;20.13;;;8.50;99.90;;;;;;5009649;28;20541;-66
2022/01/04 07:27:32;;;;;;;42.92;20.35;;;8.50;99.90;;;;;;4994307;28;20046;-66
2022/01/04 07:29:58;;;;;;;47.67;20.58;;;8.50;99.90;;;;;;5008881;28;20050;-66
2022/01/04 07:32:23;;;;;;;40.50;20.98;;;8.40;99.90;;;;;;5020359;23;20569;-64
2022/01/04 07:34:49;;;;;;;42.08;20.50;;;8.50;99.90;;;;;;5009576;28;20042;-64
2022/01/04 07:37:15;;;;;;;43.13;19.67;;;8.50;99.90;;;;;;5009341;28;20038;-63
2022/01/04 07:39:40;;;;;;;42.92;19.63;;;8.40;99.90;;;;;;5009312;28;20540;-64
2022/01/04 07:42:06;;;;;;;38.63;20.45;;;8.40;99.90;;;;;;5009084;28;20042;-63
2022/01/04 07:44:33;;;;;;;39.88;19.58;;;8.50;99.90;;;;;;5008900;28;20448;-63
2022/01/04 07:46:58;;;;;;;40.92;20.42;;;8.50;99.90;;;;;;5009489;28;20045;-63
2022/01/04 07:49:25;;;;;;;36.60;18.83;;;8.50;99.90;;;;;;5009480;28;20034;-63
2022/01/04 07:51:51;;;;;;;44.13;19.25;;;8.50;99.90;;;;;;5009253;28;20541;-63
2022/01/04 07:54:17;;;;;;;42.70;20.30;;;8.50;99.90;;;;;;5009080;28;20038;-63
2022/01/04 07:56:42;;;;;;;44.47;20.33;;;8.50;99.90;;;;;;5009320;28;20038;-63
2022/01/04 07:59:08;;;;;;;42.03;18.88;;;8.50;99.90;;;;;;5012772;28;20048;-64
2022/01/04 08:01:34;;;;;;;38.88;18.60;;;8.50;99.90;;;;;;5012906;28;20052;-63
2022/01/04 08:04:04;;;;;;;41.78;18.75;;;8.50;99.90;;;;;;5012531;28;20506;-63
2022/01/04 08:06:30;;;;;;;36.72;19.10;;;8.50;99.90;;;;;;5012793;28;20045;-63
2022/01/04 08:08:55;;;;;;;41.67;18.95;;;8.50;99.90;;;;;;5009685;28;20042;-61
2022/01/04 08:11:21;;;;;;;39.45;18.10;;;8.50;99.90;;;;;;5012420;28;20041;-63
2022/01/04 08:13:47;;;;;;;37.13;18.02;;;8.50;99.90;;;;;;5012395;28;20681;-63
2022/01/04 08:16:15;;;;;;;41.00;19.17;;;8.50;99.90;;;;;;5012860;28;20516;-66
2022/01/04 08:18:42;;;;;;;37.72;17.95;;;8.50;99.90;;;;;;5012992;28;20112;-64
2022/01/04 08:21:08;;;;;;;35.70;17.63;;;8.50;99.90;;;;;;5012740;28;20037;-62
2022/01/04 08:23:33;;;;;;;37.15;19.15;;;8.50;99.90;;;;;;5012297;28;20053;-63
2022/01/04 08:25:59;;;;;;;37.25;18.00;;;8.50;99.90;;;;;;5012465;28;20050;-63
2022/01/04 08:28:25;;;;;;;35.67;18.02;;;8.50;99.90;;;;;;5012470;28;20411;-62
2022/01/04 08:30:50;;;;;;;35.53;17.38;;;8.50;99.90;;;;;;5012281;28;20120;-63
2022/01/04 08:33:16;;;;;;;33.13;17.23;;;8.40;99.90;;;;;;5011919;28;20037;-63
2022/01/04 08:35:42;;;;;;;35.60;16.65;;;8.40;99.90;;;;;;5012265;28;20454;-64
2022/01/04 08:38:08;;;;;;;35.78;17.23;;;8.40;99.90;;;;;;5012673;28;20113;-62
2022/01/04 08:40:34;;;;;;;35.95;16.77;;;8.50;99.90;;;;;;5012639;28;20472;-63
2022/01/04 08:42:59;;;;;;;39.85;17.13;;;8.50;99.90;;;;;;5011866;28;20490;-63
2022/01/04 08:45:26;;;;;;;35.20;17.15;;;8.50;99.90;;;;;;5012126;28;20038;-63
2022/01/04 08:47:52;;;;;;;34.97;18.75;;;8.50;99.90;;;;;;5011765;28;20049;-63
2022/01/04 08:50:18;;;;;;;42.03;20.83;;;8.50;99.90;;;;;;5011757;28;20480;-63
2022/01/04 08:52:44;;;;;;;33.63;17.92;;;8.50;99.90;;;;;;5011560;28;20049;-63
2022/01/04 08:55:11;;;;;;;36.25;18.70;;;8.50;99.90;;;;;;5011851;28;20041;-63
2022/01/04 08:57:36;;;;;;;35.20;17.50;;;8.50;99.90;;;;;;5012018;28;20045;-63
2022/01/04 09:00:05;;;;;;;35.58;18.63;;;8.50;99.90;;;;;;5010785;28;20052;-62
2022/01/04 09:02:33;;;;;;;36.70;19.63;;;8.50;99.90;;;;;;5011527;28;20146;-62
2022/01/04 09:04:59;;;;;;;41.13;18.83;;;8.50;99.90;;;;;;5011784;28;20097;-63
2022/01/04 09:07:25;;;;;;;38.60;18.48;;;8.60;99.90;;;;;;5011771;28;20042;-62
2022/01/04 09:09:52;;;;;;;39.67;19.60;;;8.60;99.90;;;;;;5010873;28;20042;-63
2022/01/04 09:12:20;;;;;;;41.72;20.77;;;8.60;99.90;;;;;;5011437;28;20444;-63
2022/01/04 09:15:05;;;;;;;40.40;20.67;;;8.70;99.90;;;;;;5011497;28;20052;-64
2022/01/04 09:20:15;;;;;;;39.22;20.52;;;8.60;99.90;;;;;;5011541;28;20510;-63
2022/01/04 09:22:41;;;;;;;42.40;19.15;;;8.60;99.90;;;;;;5011096;28;20033;-62
2022/01/04 09:25:09;;;;;;;42.03;19.17;;;8.60;99.90;;;;;;5011472;28;20092;-63
2022/01/04 09:27:35;;;;;;;41.60;20.33;;;8.60;99.90;;;;;;5011504;28;20037;-62
2022/01/04 09:30:04;;;;;;;41.00;20.77;;;8.70;99.90;;;;;;5011671;28;20096;-62
2022/01/04 09:32:32;;;;;;;42.20;20.33;;;8.60;99.90;;;;;;5009813;28;20121;-61
2022/01/04 09:34:58;;;;;;;38.97;18.83;;;8.70;99.90;;;;;;5010017;28;20097;-63
2022/01/04 09:37:24;;;;;;;40.97;21.27;;;8.60;99.90;;;;;;5001695;28;20046;-61
2022/01/04 09:39:51;;;;;;;44.05;20.48;;;8.70;99.90;;;;;;4988735;28;20398;-62
2022/01/04 09:42:18;;;;;;;42.78;19.27;;;8.60;99.90;;;;;;4993619;28;20097;-61
2022/01/04 09:44:43;;;;;;;39.92;19.30;;;8.60;99.90;;;;;;4988574;28;20418;-63
2022/01/04 09:47:09;;;;;;;47.30;19.85;;;8.50;99.90;;;;;;4999677;28;20041;-62
2022/01/04 09:49:34;;;;;;;34.08;16.63;;;8.50;99.90;;;;;;5007539;28;20068;-62
2022/01/04 09:52:02;;;;;;;35.45;16.70;;;8.50;99.90;;;;;;5003801;28;20034;-62
2022/01/04 09:54:28;;;;;;;23.55;12.75;;;8.50;99.90;;;;;;4999657;28;20034;-62
2022/01/04 09:56:54;;;;;;;18.25;10.77;;;8.50;99.90;;;;;;4996057;28;20455;-63
2022/01/04 09:59:20;;;;;;;19.55;9.20;;;8.40;99.90;;;;;;4990179;28;20038;-63
2022/01/04 10:01:53;;;;;;;16.10;6.43;;;8.30;99.90;;;;;;4992113;28;20040;-63
2022/01/04 10:04:24;;;;;;;10.82;5.22;;;8.10;99.90;;;;;;4997998;28;20041;-63
2022/01/04 10:07:04;;;;;;;11.87;5.23;;;7.90;99.90;;;;;;4997276;28;20046;-64
2022/01/04 10:09:45;;;;;;;9.48;4.47;;;7.80;99.90;;;;;;5000086;28;20108;-63
2022/01/04 10:12:13;;;;;;;8.80;3.78;;;7.80;99.90;;;;;;4998520;28;20097;-61
2022/01/04 10:14:47;;;;;;;6.75;3.25;;;7.70;99.90;;;;;;5000661;28;20117;-63
2022/01/04 10:17:14;;;;;;;8.50;3.15;;;7.70;99.90;;;;;;4997308;28;20068;-63
2022/01/04 10:19:48;;;;;;;8.23;3.10;;;7.70;99.90;;;;;;4998357;28;20046;-63
2022/01/04 10:22:30;;;;;;;8.60;2.95;;;7.70;99.90;;;;;;4998131;28;20076;-63
2022/01/04 10:25:05;;;;;;;4.93;2.72;;;7.70;99.90;;;;;;4997896;28;20517;-63
2022/01/04 10:27:38;;;;;;;7.28;2.72;;;7.80;99.90;;;;;;4997564;28;20039;-63
2022/01/04 10:30:16;;;;;;;6.10;2.50;;;7.80;99.90;;;;;;4996160;28;20033;-63
2022/01/04 10:32:47;;;;;;;9.68;3.22;;;7.90;99.90;;;;;;4998598;28;20042;-63
2022/01/04 10:35:40;;;;;;;4.90;2.65;;;7.90;99.90;;;;;;4990901;28;20121;-62
2022/01/04 10:38:31;;;;;;;6.05;2.47;;;7.90;99.90;;;;;;5002099;28;20418;-64
2022/01/04 10:41:17;;;;;;;7.25;2.60;;;7.90;99.90;;;;;;5004575;28;20133;-63
2022/01/04 10:43:55;;;;;;;6.07;2.35;;;8.00;99.90;;;;;;4988950;28;20091;-63
2022/01/04 10:46:33;;;;;;;5.70;2.78;;;8.00;99.90;;;;;;4989698;28;20042;-63
2022/01/04 10:49:00;;;;;;;7.03;2.40;;;8.00;99.90;;;;;;5003679;28;20053;-62
2022/01/04 10:51:27;;;;;;;7.80;2.72;;;8.00;99.90;;;;;;5008167;28;20030;-62
2022/01/04 10:53:58;;;;;;;6.18;2.50;;;8.00;99.90;;;;;;5007635;28;20482;-63
2022/01/04 10:56:31;;;;;;;8.45;2.90;;;8.00;99.90;;;;;;5008015;28;20045;-61
2022/01/04 10:59:02;;;;;;;6.07;2.70;;;8.00;99.90;;;;;;5008255;28;20038;-62
2022/01/04 11:01:29;;;;;;;;;;;8.00;99.90;;;;;;4997020;28;20115;-62
2022/01/04 11:03:59;;;;;;;5.85;2.80;;;8.00;99.90;;;;;;4990003;28;20442;-62
2022/01/04 11:06:34;;;;;;;9.77;3.25;;;8.00;99.90;;;;;;4989941;28;20057;-62
2022/01/04 11:08:59;;;;;;;8.30;3.20;;;8.00;99.90;;;;;;4988626;28;20057;-62
2022/01/04 11:11:26;;;;;;;9.38;3.05;;;8.00;99.90;;;;;;4992373;28;20056;-63
2022/01/04 11:13:52;;;;;;;10.05;2.75;;;8.00;99.90;;;;;;4980656;28;20069;-62
2022/01/04 11:16:23;;;;;;;6.25;2.60;;;8.00;99.90;;;;;;4997607;28;20050;-62
2022/01/04 11:18:52;;;;;;;7.75;2.83;;;8.00;99.90;;;;;;4992802;28;20122;-63
2022/01/04 11:21:21;;;;;;;6.10;2.10;;;7.90;99.90;;;;;;4998917;28;20505;-63
2022/01/04 11:23:48;;;;;;;2.60;1.70;;;7.80;99.90;;;;;;5000119;28;20034;-63
2022/01/04 11:26:15;;;;;;;6.78;2.35;;;7.70;99.90;;;;;;4998689;28;20041;-63
2022/01/04 11:28:43;;;;;;;2.22;1.30;;;7.70;99.90;;;;;;4998925;28;20038;-63
2022/01/04 11:31:31;;;;;;;7.30;2.15;;;7.60;99.90;;;;;;5000122;28;20513;-63
2022/01/04 11:34:11;;;;;;;6.18;1.52;;;7.50;99.90;;;;;;5005290;28;20048;-63
2022/01/04 11:37:03;;;;;;;5.45;2.00;;;7.50;99.90;;;;;;5001867;28;20084;-64
2022/01/04 11:39:32;;;;;;;7.07;2.53;;;7.50;99.90;;;;;;4997850;28;20042;-64
2022/01/04 11:42:03;;;;;;;3.88;1.85;;;7.40;99.90;;;;;;5001908;28;20048;-62
2022/01/04 11:44:31;;;;;;;;;;;7.40;99.90;;;;;;5001788;28;20398;-62
2022/01/04 11:46:59;;;;;;;4.32;1.40;;;7.30;99.90;;;;;;5002133;28;19921;-63
2022/01/04 11:49:24;;;;;;;4.10;1.50;;;7.30;99.90;;;;;;5003038;28;20034;-62
2022/01/04 11:51:50;;;;;;;4.22;1.60;;;7.30;99.90;;;;;;4999255;28;20099;-63
2022/01/04 11:54:22;;;;;;;8.65;1.83;;;7.20;99.90;;;;;;4992105;28;20038;-63
2022/01/04 11:56:54;;;;;;;3.22;1.50;;;7.20;99.90;;;;;;5003027;28;20756;-63
2022/01/04 11:59:21;;;;;;;5.18;1.60;;;7.20;99.90;;;;;;5002553;28;20046;-63
2022/01/04 12:01:47;;;;;;;4.15;1.60;;;7.30;99.90;;;;;;4999269;28;20042;-63
2022/01/04 12:04:12;;;;;;;2.88;1.60;;;7.30;99.90;;;;;;4997569;28;20038;-63
2022/01/04 12:06:42;;;;;;;6.15;1.70;;;7.30;99.90;;;;;;5001959;28;20037;-62
2022/01/04 12:09:27;;;;;;;5.18;1.45;;;7.30;99.90;;;;;;5002520;28;20045;-62
2022/01/04 12:11:53;;;;;;;4.78;0.90;;;7.20;99.90;;;;;;5000826;28;20124;-63
2022/01/04 12:14:24;;;;;;;1.50;0.90;;;7.10;99.90;;;;;;4999004;28;20490;-63
2022/01/04 12:17:01;;;;;;;1.27;0.77;;;7.00;99.90;;;;;;4992960;28;20096;-63
2022/01/04 12:19:48;;;;;;;3.30;0.90;;;6.80;99.90;;;;;;4991588;28;20061;-62
2022/01/04 12:22:28;;;;;;;4.03;0.80;;;6.80;99.90;;;;;;4992922;28;20569;-62
2022/01/04 12:25:05;;;;;;;5.65;1.90;;;6.80;99.90;;;;;;4991516;28;20038;-62
2022/01/04 12:27:30;;;;;;;2.72;1.02;;;6.70;99.90;;;;;;4992799;28;20042;-63
2022/01/04 12:30:22;;;;;;;2.10;1.35;;;6.70;99.90;;;;;;4992583;28;20034;-63
2022/01/04 12:32:47;;;;;;;2.22;0.90;;;6.70;99.90;;;;;;4992335;28;20438;-63
2022/01/04 12:35:13;;;;;;;3.85;1.40;;;6.70;99.90;;;;;;4992631;28;20046;-63
2022/01/04 12:37:38;;;;;;;3.25;1.10;;;6.60;99.90;;;;;;4992540;28;20088;-63
2022/01/04 12:40:05;;;;;;;3.90;1.30;;;6.60;99.90;;;;;;4992461;28;20435;-62
2022/01/04 12:42:30;;;;;;;3.28;1.17;;;6.60;99.90;;;;;;4992275;28;20043;-63
2022/01/04 12:44:57;;;;;;;2.50;0.93;;;6.60;99.90;;;;;;4991044;28;20089;-62
2022/01/04 12:47:24;;;;;;;3.85;1.10;;;6.60;99.90;;;;;;4990854;28;20042;-63
2022/01/04 12:49:50;;;;;;;5.38;1.20;;;6.50;99.90;;;;;;4992511;28;20113;-62
2022/01/04 12:52:17;;;;;;;1.13;0.95;;;6.50;99.90;;;;;;4997291;28;20663;-62
2022/01/04 12:54:43;;;;;;;2.38;1.05;;;6.40;99.90;;;;;;5001713;28;20087;-62
2022/01/04 12:57:18;;;;;;;2.15;0.75;;;6.20;99.90;;;;;;4999939;28;20035;-62
2022/01/04 12:59:49;;;;;;;1.65;1.10;;;6.00;99.90;;;;;;4998347;28;20053;-62
2022/01/04 13:02:31;;;;;;;2.97;1.05;;;6.00;99.90;;;;;;4992693;28;20122;-62
2022/01/04 13:05:03;;;;;;;3.08;1.15;;;6.00;99.90;;;;;;5001281;28;20463;-61
2022/01/04 13:07:34;;;;;;;4.22;1.00;;;6.00;99.90;;;;;;4999882;28;20030;-62
2022/01/04 13:10:11;;;;;;;3.20;1.17;;;6.00;99.90;;;;;;5005515;28;20042;-62
2022/01/04 13:12:47;;;;;;;3.88;1.50;;;6.00;99.90;;;;;;5011364;28;20117;-62
2022/01/04 13:15:19;;;;;;;3.10;0.90;;;6.00;99.90;;;;;;5011663;28;20456;-62
2022/01/04 13:17:52;;;;;;;2.35;1.05;;;6.00;99.90;;;;;;5011323;28;20084;-62
2022/01/04 13:20:28;;;;;;;4.88;0.82;;;6.00;99.90;;;;;;5009861;28;20048;-62
2022/01/04 13:22:55;;;;;;;2.95;0.85;;;6.10;99.90;;;;;;5009690;28;20104;-62
2022/01/04 13:25:20;;;;;;;5.80;1.05;;;6.10;99.90;;;;;;5009723;28;20553;-62
2022/01/04 13:27:46;;;;;;;2.47;0.93;;;6.10;99.90;;;;;;5010031;28;20605;-62
2022/01/04 13:30:17;;;;;;;5.50;1.10;;;6.20;99.90;;;;;;5010393;28;20532;-62
2022/01/04 13:32:53;;;;;;;2.63;0.88;;;6.20;99.90;;;;;;5052950;23;20060;-62
2022/01/04 13:35:28;;;;;;;2.97;1.00;;;6.20;99.90;;;;;;4993223;28;20547;-62
2022/01/04 13:38:04;;;;;;;6.28;1.00;;;6.30;99.90;;;;;;5011064;28;20107;-63
2022/01/04 13:40:32;;;;;;;7.60;1.10;;;6.30;99.90;;;;;;5010944;28;20417;-62
2022/01/04 13:43:23;;;;;;;8.15;0.90;;;6.40;99.90;;;;;;5010445;28;20037;-63
2022/01/04 13:45:57;;;;;;;4.05;1.08;;;6.40;99.90;;;;;;5010631;28;20404;-62
2022/01/04 13:48:24;;;;;;;3.03;1.35;;;6.40;99.90;;;;;;5010884;28;20633;-62
2022/01/04 13:50:50;;;;;;;7.20;1.00;;;6.40;99.90;;;;;;5010870;28;20038;-62
2022/01/04 13:53:18;;;;;;;1.73;0.85;;;6.40;99.90;;;;;;5010453;28;20383;-62
2022/01/04 13:55:56;;;;;;;8.55;1.20;;;6.40;99.90;;;;;;5010504;28;20502;-63
2022/01/04 13:58:54;;;;;;;9.38;1.15;;;6.40;99.90;;;;;;5010913;28;20077;-63
2022/01/04 14:01:38;;;;;;;10.93;1.58;;;6.50;99.90;;;;;;4956714;28;20121;-63
2022/01/04 14:04:10;;;;;;;3.47;0.90;;;6.40;99.90;;;;;;5010559;28;20041;-62
2022/01/04 14:06:55;;;;;;;5.05;1.48;;;6.40;99.90;;;;;;5010602;28;20046;-62
2022/01/04 14:09:35;;;;;;;3.10;1.65;;;6.50;99.90;;;;;;5010554;28;20034;-62
2022/01/04 14:12:00;;;;;;;7.25;1.15;;;6.50;99.90;;;;;;5010233;28;20038;-62
2022/01/04 14:14:31;;;;;;;9.05;1.52;;;6.50;99.90;;;;;;5010467;28;20063;-62
2022/01/04 14:17:07;;;;;;;6.68;1.42;;;6.50;99.90;;;;;;5010681;28;20042;-63
2022/01/04 14:19:45;;;;;;;7.30;1.40;;;6.50;99.90;;;;;;5010381;28;20042;-62
2022/01/04 14:22:16;;;;;;;8.25;1.75;;;6.50;99.90;;;;;;5010333;28;20121;-62
2022/01/04 14:24:53;;;;;;;3.22;1.30;;;6.40;99.90;;;;;;5010135;28;20048;-63
2022/01/04 14:27:28;;;;;;;8.38;1.50;;;6.40;99.90;;;;;;5010484;28;20124;-62